sensor_id;sensor_type;location;lat;lon;timestamp;P1;durP1;ratioP1;P2;durP2;ratioP2
3197;SDS011;1611;49.394;11.136;2022-08-21T00:01:09;7.77;;;7.07;;
3197;SDS011;1611;49.394;11.136;2022-08-21T00:03:41;6.97;;;6.37;;
3197;SDS011;1611;49.394;11.136;2022-08-21T00:06:08;7.73;;;6.93;;
3197;SDS011;1611;49.394;11.136;2022-08-21T00:08:35;6.83;;;6.43;;
3197;SDS011;1611;49.394;11.136;2022-08-21T00:11:02;7.73;;;6.90;;
3197;SDS011;1611;49.394;11.136;2022-08-21T00:13:30;7.67;;;7.00;;
3197;SDS011;1611;49.394;11.136;2022-08-21T00:15:58;7.80;;;7.17;;
3197;SDS011;1611;49.394;11.136;2022-08-21T00:18:25;8.97;;;8.10;;
3197;SDS011;1611;49.394;11.136;2022-08-21T00:20:54;7.57;;;6.70;;
3197;SDS011;1611;49.394;11.136;2022-08-21T00:23:20;6.80;;;6.20;;
3197;SDS011;1611;49.394;11.136;2022-08-21T00:25:48;7.03;;;6.40;;
3197;SDS011;1611;49.394;11.136;2022-08-21T00:28:15;9.23;;;7.37;;
3197;SDS011;1611;49.394;11.136;2022-08-21T00:30:43;10.10;;;8.53;;
3197;SDS011;1611;49.394;11.136;2022-08-21T00:33:10;8.23;;;7.00;;
3197;SDS011;1611;49.394;11.136;2022-08-21T00:35:38;8.73;;;7.93;;
3197;SDS011;1611;49.394;11.136;2022-08-21T00:38:07;7.43;;;6.73;;
3197;SDS011;1611;49.394;11.136;2022-08-21T00:40:36;9.90;;;7.07;;
3197;SDS011;1611;49.394;11.136;2022-08-21T00:43:06;9.03;;;7.57;;
3197;SDS011;1611;49.394;11.136;2022-08-21T00:45:34;8.60;;;7.63;;
3197;SDS011;1611;49.394;11.136;2022-08-21T00:48:01;8.53;;;7.83;;
3197;SDS011;1611;49.394;11.136;2022-08-21T00:50:29;7.67;;;6.60;;
3197;SDS011;1611;49.394;11.136;2022-08-21T00:52:58;9.07;;;8.17;;
3197;SDS011;1611;49.394;11.136;2022-08-21T00:55:28;14.77;;;8.17;;
3197;SDS011;1611;49.394;11.136;2022-08-21T00:57:57;11.53;;;7.80;;
3197;SDS011;1611;49.394;11.136;2022-08-21T01:00:28;8.00;;;7.00;;
3197;SDS011;1611;49.394;11.136;2022-08-21T01:02:59;7.80;;;7.00;;
3197;SDS011;1611;49.394;11.136;2022-08-21T01:05:27;11.80;;;7.43;;
3197;SDS011;1611;49.394;11.136;2022-08-21T01:07:54;7.50;;;6.90;;
3197;SDS011;1611;49.394;11.136;2022-08-21T01:10:22;7.50;;;6.90;;
3197;SDS011;1611;49.394;11.136;2022-08-21T01:12:52;7.67;;;6.90;;
3197;SDS011;1611;49.394;11.136;2022-08-21T01:15:21;8.77;;;7.77;;
3197;SDS011;1611;49.394;11.136;2022-08-21T01:17:49;8.73;;;6.83;;
3197;SDS011;1611;49.394;11.136;2022-08-21T01:20:16;7.83;;;7.13;;
3197;SDS011;1611;49.394;11.136;2022-08-21T01:22:44;13.60;;;7.73;;
3197;SDS011;1611;49.394;11.136;2022-08-21T01:25:12;14.20;;;7.13;;
3197;SDS011;1611;49.394;11.136;2022-08-21T01:27:40;9.10;;;8.30;;
3197;SDS011;1611;49.394;11.136;2022-08-21T01:30:08;7.57;;;6.87;;
3197;SDS011;1611;49.394;11.136;2022-08-21T01:32:37;7.80;;;7.07;;
3197;SDS011;1611;49.394;11.136;2022-08-21T01:35:06;8.60;;;7.00;;
3197;SDS011;1611;49.394;11.136;2022-08-21T01:37:34;8.33;;;7.63;;
3197;SDS011;1611;49.394;11.136;2022-08-21T01:40:03;8.43;;;7.83;;
3197;SDS011;1611;49.394;11.136;2022-08-21T01:42:30;8.30;;;7.60;;
3197;SDS011;1611;49.394;11.136;2022-08-21T01:44:57;9.70;;;8.73;;
3197;SDS011;1611;49.394;11.136;2022-08-21T01:47:24;11.00;;;8.30;;
3197;SDS011;1611;49.394;11.136;2022-08-21T01:49:51;8.53;;;7.87;;
3197;SDS011;1611;49.394;11.136;2022-08-21T01:52:18;9.00;;;8.30;;
3197;SDS011;1611;49.394;11.136;2022-08-21T01:54:46;8.20;;;7.50;;
3197;SDS011;1611;49.394;11.136;2022-08-21T01:57:14;9.57;;;8.67;;
3197;SDS011;1611;49.394;11.136;2022-08-21T01:59:41;9.03;;;8.23;;
3197;SDS011;1611;49.394;11.136;2022-08-21T02:02:08;8.63;;;7.80;;
3197;SDS011;1611;49.394;11.136;2022-08-21T02:04:35;8.87;;;7.70;;
3197;SDS011;1611;49.394;11.136;2022-08-21T02:07:01;9.70;;;8.57;;
3197;SDS011;1611;49.394;11.136;2022-08-21T02:09:28;9.30;;;7.20;;
3197;SDS011;1611;49.394;11.136;2022-08-21T02:11:55;7.40;;;6.20;;
3197;SDS011;1611;49.394;11.136;2022-08-21T02:14:23;9.43;;;7.97;;
3197;SDS011;1611;49.394;11.136;2022-08-21T02:16:50;8.60;;;7.10;;
3197;SDS011;1611;49.394;11.136;2022-08-21T02:19:18;8.60;;;7.90;;
3197;SDS011;1611;49.394;11.136;2022-08-21T02:21:44;7.60;;;7.00;;
3197;SDS011;1611;49.394;11.136;2022-08-21T02:24:11;11.10;;;8.63;;
3197;SDS011;1611;49.394;11.136;2022-08-21T02:26:38;8.83;;;7.40;;
3197;SDS011;1611;49.394;11.136;2022-08-21T02:29:05;12.20;;;7.43;;
3197;SDS011;1611;49.394;11.136;2022-08-21T02:31:34;9.57;;;8.57;;
3197;SDS011;1611;49.394;11.136;2022-08-21T02:34:01;9.50;;;7.80;;
3197;SDS011;1611;49.394;11.136;2022-08-21T02:36:28;8.60;;;7.90;;
3197;SDS011;1611;49.394;11.136;2022-08-21T02:38:54;7.70;;;7.10;;
3197;SDS011;1611;49.394;11.136;2022-08-21T02:41:22;7.27;;;6.57;;
3197;SDS011;1611;49.394;11.136;2022-08-21T02:43:49;8.40;;;7.20;;
3197;SDS011;1611;49.394;11.136;2022-08-21T02:46:18;9.63;;;7.47;;
3197;SDS011;1611;49.394;11.136;2022-08-21T02:48:47;7.60;;;7.00;;
3197;SDS011;1611;49.394;11.136;2022-08-21T02:51:15;8.87;;;7.97;;
3197;SDS011;1611;49.394;11.136;2022-08-21T02:53:43;8.83;;;7.97;;
3197;SDS011;1611;49.394;11.136;2022-08-21T02:56:15;9.00;;;7.70;;
3197;SDS011;1611;49.394;11.136;2022-08-21T02:58:45;11.47;;;6.90;;
3197;SDS011;1611;49.394;11.136;2022-08-21T03:01:14;8.63;;;6.90;;
3197;SDS011;1611;49.394;11.136;2022-08-21T03:03:42;8.10;;;7.50;;
3197;SDS011;1611;49.394;11.136;2022-08-21T03:06:13;10.43;;;8.53;;
3197;SDS011;1611;49.394;11.136;2022-08-21T03:08:41;14.73;;;7.97;;
3197;SDS011;1611;49.394;11.136;2022-08-21T03:11:10;8.93;;;7.33;;
3197;SDS011;1611;49.394;11.136;2022-08-21T03:13:37;14.30;;;9.37;;
3197;SDS011;1611;49.394;11.136;2022-08-21T03:16:04;14.53;;;8.03;;
3197;SDS011;1611;49.394;11.136;2022-08-21T03:18:32;8.90;;;8.00;;
3197;SDS011;1611;49.394;11.136;2022-08-21T03:20:59;12.20;;;7.60;;
3197;SDS011;1611;49.394;11.136;2022-08-21T03:23:27;11.30;;;8.40;;
3197;SDS011;1611;49.394;11.136;2022-08-21T03:25:55;9.67;;;7.97;;
3197;SDS011;1611;49.394;11.136;2022-08-21T03:28:22;11.70;;;8.67;;
3197;SDS011;1611;49.394;11.136;2022-08-21T03:30:50;8.80;;;7.90;;
3197;SDS011;1611;49.394;11.136;2022-08-21T03:33:17;10.30;;;8.43;;
3197;SDS011;1611;49.394;11.136;2022-08-21T03:35:45;10.07;;;8.83;;
3197;SDS011;1611;49.394;11.136;2022-08-21T03:38:14;10.37;;;7.93;;
3197;SDS011;1611;49.394;11.136;2022-08-21T03:40:42;14.00;;;8.90;;
3197;SDS011;1611;49.394;11.136;2022-08-21T03:43:09;11.00;;;8.17;;
3197;SDS011;1611;49.394;11.136;2022-08-21T03:45:36;10.83;;;9.83;;
3197;SDS011;1611;49.394;11.136;2022-08-21T03:48:05;15.93;;;9.70;;
3197;SDS011;1611;49.394;11.136;2022-08-21T03:50:35;14.03;;;10.57;;
3197;SDS011;1611;49.394;11.136;2022-08-21T03:53:04;9.50;;;8.67;;
3197;SDS011;1611;49.394;11.136;2022-08-21T03:55:31;11.10;;;10.00;;
3197;SDS011;1611;49.394;11.136;2022-08-21T03:57:59;13.13;;;10.70;;
3197;SDS011;1611;49.394;11.136;2022-08-21T04:00:26;10.23;;;9.23;;
3197;SDS011;1611;49.394;11.136;2022-08-21T04:02:53;11.93;;;10.60;;
3197;SDS011;1611;49.394;11.136;2022-08-21T04:05:20;11.10;;;10.00;;
3197;SDS011;1611;49.394;11.136;2022-08-21T04:07:53;17.50;;;10.07;;
3197;SDS011;1611;49.394;11.136;2022-08-21T04:10:21;10.00;;;9.00;;
3197;SDS011;1611;49.394;11.136;2022-08-21T04:12:49;10.67;;;9.50;;
3197;SDS011;1611;49.394;11.136;2022-08-21T04:15:18;10.10;;;9.20;;
3197;SDS011;1611;49.394;11.136;2022-08-21T04:17:45;16.40;;;11.13;;
3197;SDS011;1611;49.394;11.136;2022-08-21T04:20:13;16.03;;;13.00;;
3197;SDS011;1611;49.394;11.136;2022-08-21T04:22:42;14.50;;;12.40;;
3197;SDS011;1611;49.394;11.136;2022-08-21T04:25:10;15.73;;;13.50;;
3197;SDS011;1611;49.394;11.136;2022-08-21T04:27:36;113.97;;;18.57;;
3197;SDS011;1611;49.394;11.136;2022-08-21T04:30:04;34.70;;;15.33;;
3197;SDS011;1611;49.394;11.136;2022-08-21T04:32:33;78.87;;;16.60;;
3197;SDS011;1611;49.394;11.136;2022-08-21T04:35:00;48.80;;;15.00;;
3197;SDS011;1611;49.394;11.136;2022-08-21T04:37:31;23.17;;;14.37;;
3197;SDS011;1611;49.394;11.136;2022-08-21T04:39:57;15.97;;;14.33;;
3197;SDS011;1611;49.394;11.136;2022-08-21T04:42:24;21.57;;;14.20;;
3197;SDS011;1611;49.394;11.136;2022-08-21T04:44:52;29.47;;;13.50;;
3197;SDS011;1611;49.394;11.136;2022-08-21T04:47:19;66.20;;;14.80;;
3197;SDS011;1611;49.394;11.136;2022-08-21T04:49:48;23.80;;;14.53;;
3197;SDS011;1611;49.394;11.136;2022-08-21T04:52:17;44.73;;;15.07;;
3197;SDS011;1611;49.394;11.136;2022-08-21T04:54:47;13.93;;;12.17;;
3197;SDS011;1611;49.394;11.136;2022-08-21T04:57:16;55.80;;;12.73;;
3197;SDS011;1611;49.394;11.136;2022-08-21T04:59:46;14.00;;;12.70;;
3197;SDS011;1611;49.394;11.136;2022-08-21T05:02:15;13.53;;;12.23;;
3197;SDS011;1611;49.394;11.136;2022-08-21T05:04:43;13.33;;;11.90;;
3197;SDS011;1611;49.394;11.136;2022-08-21T05:07:14;16.70;;;12.40;;
3197;SDS011;1611;49.394;11.136;2022-08-21T05:09:44;12.77;;;11.40;;
3197;SDS011;1611;49.394;11.136;2022-08-21T05:12:11;17.40;;;12.37;;
3197;SDS011;1611;49.394;11.136;2022-08-21T05:14:38;13.50;;;12.10;;
3197;SDS011;1611;49.394;11.136;2022-08-21T05:17:06;12.00;;;10.73;;
3197;SDS011;1611;49.394;11.136;2022-08-21T05:19:33;12.70;;;11.50;;
3197;SDS011;1611;49.394;11.136;2022-08-21T05:22:00;14.07;;;12.63;;
3197;SDS011;1611;49.394;11.136;2022-08-21T05:24:28;14.10;;;12.70;;
3197;SDS011;1611;49.394;11.136;2022-08-21T05:26:55;21.50;;;13.80;;
3197;SDS011;1611;49.394;11.136;2022-08-21T05:29:22;44.93;;;15.83;;
3197;SDS011;1611;49.394;11.136;2022-08-21T05:31:48;72.47;;;17.10;;
3197;SDS011;1611;49.394;11.136;2022-08-21T05:34:17;18.37;;;14.63;;
3197;SDS011;1611;49.394;11.136;2022-08-21T05:36:45;35.17;;;14.80;;
3197;SDS011;1611;49.394;11.136;2022-08-21T05:39:13;16.40;;;14.63;;
3197;SDS011;1611;49.394;11.136;2022-08-21T05:41:41;22.20;;;15.50;;
3197;SDS011;1611;49.394;11.136;2022-08-21T05:44:08;17.33;;;14.50;;
3197;SDS011;1611;49.394;11.136;2022-08-21T05:46:35;15.50;;;13.90;;
3197;SDS011;1611;49.394;11.136;2022-08-21T05:49:02;15.50;;;13.70;;
3197;SDS011;1611;49.394;11.136;2022-08-21T05:51:29;16.67;;;13.53;;
3197;SDS011;1611;49.394;11.136;2022-08-21T05:53:56;59.93;;;15.43;;
3197;SDS011;1611;49.394;11.136;2022-08-21T05:56:22;18.80;;;14.80;;
3197;SDS011;1611;49.394;11.136;2022-08-21T05:58:51;16.53;;;14.80;;
3197;SDS011;1611;49.394;11.136;2022-08-21T06:01:17;15.27;;;13.77;;
3197;SDS011;1611;49.394;11.136;2022-08-21T06:03:44;24.83;;;14.10;;
3197;SDS011;1611;49.394;11.136;2022-08-21T06:06:11;16.70;;;13.67;;
3197;SDS011;1611;49.394;11.136;2022-08-21T06:08:38;15.10;;;13.40;;
3197;SDS011;1611;49.394;11.136;2022-08-21T06:11:05;15.40;;;13.50;;
3197;SDS011;1611;49.394;11.136;2022-08-21T06:13:32;18.83;;;15.50;;
3197;SDS011;1611;49.394;11.136;2022-08-21T06:16:05;18.93;;;16.70;;
3197;SDS011;1611;49.394;11.136;2022-08-21T06:18:34;22.20;;;17.10;;
3197;SDS011;1611;49.394;11.136;2022-08-21T06:21:02;24.90;;;18.20;;
3197;SDS011;1611;49.394;11.136;2022-08-21T06:23:29;27.00;;;17.77;;
3197;SDS011;1611;49.394;11.136;2022-08-21T06:25:56;17.97;;;15.63;;
3197;SDS011;1611;49.394;11.136;2022-08-21T06:28:23;30.60;;;17.60;;
3197;SDS011;1611;49.394;11.136;2022-08-21T06:30:50;20.80;;;17.27;;
3197;SDS011;1611;49.394;11.136;2022-08-21T06:33:18;52.47;;;18.30;;
3197;SDS011;1611;49.394;11.136;2022-08-21T06:35:45;25.60;;;18.40;;
3197;SDS011;1611;49.394;11.136;2022-08-21T06:38:12;20.07;;;17.87;;
3197;SDS011;1611;49.394;11.136;2022-08-21T06:40:39;19.80;;;17.70;;
3197;SDS011;1611;49.394;11.136;2022-08-21T06:43:06;27.80;;;20.27;;
3197;SDS011;1611;49.394;11.136;2022-08-21T06:45:34;31.90;;;21.60;;
3197;SDS011;1611;49.394;11.136;2022-08-21T06:48:01;25.67;;;20.43;;
3197;SDS011;1611;49.394;11.136;2022-08-21T06:50:30;23.00;;;19.67;;
3197;SDS011;1611;49.394;11.136;2022-08-21T06:52:58;23.20;;;19.67;;
3197;SDS011;1611;49.394;11.136;2022-08-21T06:55:26;25.93;;;21.37;;
3197;SDS011;1611;49.394;11.136;2022-08-21T06:57:53;22.80;;;18.80;;
3197;SDS011;1611;49.394;11.136;2022-08-21T07:00:20;21.67;;;18.70;;
3197;SDS011;1611;49.394;11.136;2022-08-21T07:02:47;23.43;;;19.87;;
3197;SDS011;1611;49.394;11.136;2022-08-21T07:05:14;25.33;;;20.20;;
3197;SDS011;1611;49.394;11.136;2022-08-21T07:07:42;32.10;;;21.93;;
3197;SDS011;1611;49.394;11.136;2022-08-21T07:10:09;28.07;;;21.70;;
3197;SDS011;1611;49.394;11.136;2022-08-21T07:12:36;25.83;;;20.93;;
3197;SDS011;1611;49.394;11.136;2022-08-21T07:15:03;25.70;;;19.87;;
3197;SDS011;1611;49.394;11.136;2022-08-21T07:17:31;23.07;;;20.20;;
3197;SDS011;1611;49.394;11.136;2022-08-21T07:19:58;20.83;;;18.63;;
3197;SDS011;1611;49.394;11.136;2022-08-21T07:22:24;22.90;;;19.63;;
3197;SDS011;1611;49.394;11.136;2022-08-21T07:24:54;25.60;;;21.10;;
3197;SDS011;1611;49.394;11.136;2022-08-21T07:27:21;22.37;;;19.70;;
3197;SDS011;1611;49.394;11.136;2022-08-21T07:29:48;24.30;;;20.57;;
3197;SDS011;1611;49.394;11.136;2022-08-21T07:32:14;22.30;;;19.70;;
3197;SDS011;1611;49.394;11.136;2022-08-21T07:34:41;24.90;;;21.27;;
3197;SDS011;1611;49.394;11.136;2022-08-21T07:37:08;27.97;;;23.87;;
3197;SDS011;1611;49.394;11.136;2022-08-21T07:39:35;28.17;;;24.00;;
3197;SDS011;1611;49.394;11.136;2022-08-21T07:42:03;27.70;;;22.57;;
3197;SDS011;1611;49.394;11.136;2022-08-21T07:44:30;27.13;;;22.53;;
3197;SDS011;1611;49.394;11.136;2022-08-21T07:46:59;26.60;;;22.30;;
3197;SDS011;1611;49.394;11.136;2022-08-21T07:49:26;26.60;;;23.60;;
3197;SDS011;1611;49.394;11.136;2022-08-21T07:51:53;25.17;;;22.23;;
3197;SDS011;1611;49.394;11.136;2022-08-21T07:54:20;26.47;;;22.23;;
3197;SDS011;1611;49.394;11.136;2022-08-21T07:56:46;25.80;;;22.73;;
3197;SDS011;1611;49.394;11.136;2022-08-21T07:59:14;22.63;;;20.13;;
3197;SDS011;1611;49.394;11.136;2022-08-21T08:01:41;24.97;;;22.27;;
3197;SDS011;1611;49.394;11.136;2022-08-21T08:04:08;21.50;;;19.17;;
3197;SDS011;1611;49.394;11.136;2022-08-21T08:06:34;22.63;;;20.23;;
3197;SDS011;1611;49.394;11.136;2022-08-21T08:09:01;24.33;;;21.73;;
3197;SDS011;1611;49.394;11.136;2022-08-21T08:11:28;25.13;;;20.40;;
3197;SDS011;1611;49.394;11.136;2022-08-21T08:13:56;26.03;;;23.10;;
3197;SDS011;1611;49.394;11.136;2022-08-21T08:16:25;23.90;;;21.40;;
3197;SDS011;1611;49.394;11.136;2022-08-21T08:18:52;24.93;;;22.23;;
3197;SDS011;1611;49.394;11.136;2022-08-21T08:21:20;31.60;;;23.10;;
3197;SDS011;1611;49.394;11.136;2022-08-21T08:23:47;25.37;;;22.67;;
3197;SDS011;1611;49.394;11.136;2022-08-21T08:26:15;25.87;;;21.93;;
3197;SDS011;1611;49.394;11.136;2022-08-21T08:28:42;23.43;;;21.03;;
3197;SDS011;1611;49.394;11.136;2022-08-21T08:31:09;23.90;;;21.40;;
3197;SDS011;1611;49.394;11.136;2022-08-21T08:33:37;23.63;;;20.20;;
3197;SDS011;1611;49.394;11.136;2022-08-21T08:36:04;25.40;;;22.63;;
3197;SDS011;1611;49.394;11.136;2022-08-21T08:38:32;24.43;;;21.73;;
3197;SDS011;1611;49.394;11.136;2022-08-21T08:41:00;23.87;;;20.80;;
3197;SDS011;1611;49.394;11.136;2022-08-21T08:43:32;25.13;;;22.57;;
3197;SDS011;1611;49.394;11.136;2022-08-21T08:46:02;22.63;;;20.23;;
3197;SDS011;1611;49.394;11.136;2022-08-21T08:48:39;24.57;;;22.07;;
3197;SDS011;1611;49.394;11.136;2022-08-21T08:51:18;23.30;;;20.90;;
3197;SDS011;1611;49.394;11.136;2022-08-21T08:53:51;24.37;;;21.87;;
3197;SDS011;1611;49.394;11.136;2022-08-21T08:56:22;24.03;;;21.57;;
3197;SDS011;1611;49.394;11.136;2022-08-21T08:58:55;22.70;;;20.33;;
3197;SDS011;1611;49.394;11.136;2022-08-21T09:01:26;23.47;;;20.77;;
3197;SDS011;1611;49.394;11.136;2022-08-21T09:03:57;23.27;;;20.97;;
3197;SDS011;1611;49.394;11.136;2022-08-21T09:06:28;22.90;;;20.50;;
3197;SDS011;1611;49.394;11.136;2022-08-21T09:09:05;24.43;;;21.93;;
3197;SDS011;1611;49.394;11.136;2022-08-21T09:11:42;23.63;;;20.90;;
3197;SDS011;1611;49.394;11.136;2022-08-21T09:14:16;22.13;;;19.83;;
3197;SDS011;1611;49.394;11.136;2022-08-21T09:16:52;23.30;;;20.30;;
3197;SDS011;1611;49.394;11.136;2022-08-21T09:19:31;23.27;;;20.93;;
3197;SDS011;1611;49.394;11.136;2022-08-21T09:22:08;19.13;;;17.13;;
3197;SDS011;1611;49.394;11.136;2022-08-21T09:24:47;22.73;;;20.33;;
3197;SDS011;1611;49.394;11.136;2022-08-21T09:27:19;25.97;;;18.57;;
3197;SDS011;1611;49.394;11.136;2022-08-21T09:29:48;16.00;;;14.47;;
3197;SDS011;1611;49.394;11.136;2022-08-21T09:32:23;19.80;;;17.90;;
3197;SDS011;1611;49.394;11.136;2022-08-21T09:34:57;20.50;;;18.60;;
3197;SDS011;1611;49.394;11.136;2022-08-21T09:37:26;22.53;;;20.33;;
3197;SDS011;1611;49.394;11.136;2022-08-21T09:39:55;21.90;;;19.80;;
3197;SDS011;1611;49.394;11.136;2022-08-21T09:42:25;19.30;;;17.40;;
3197;SDS011;1611;49.394;11.136;2022-08-21T09:45:09;19.30;;;17.40;;
3197;SDS011;1611;49.394;11.136;2022-08-21T09:47:38;20.23;;;18.33;;
3197;SDS011;1611;49.394;11.136;2022-08-21T09:50:11;19.07;;;17.10;;
3197;SDS011;1611;49.394;11.136;2022-08-21T09:52:43;17.13;;;15.43;;
3197;SDS011;1611;49.394;11.136;2022-08-21T09:55:16;16.67;;;14.87;;
3197;SDS011;1611;49.394;11.136;2022-08-21T09:57:59;20.17;;;17.97;;
3197;SDS011;1611;49.394;11.136;2022-08-21T10:00:28;18.03;;;16.33;;
3197;SDS011;1611;49.394;11.136;2022-08-21T10:03:06;16.00;;;14.60;;
3197;SDS011;1611;49.394;11.136;2022-08-21T10:05:36;15.73;;;14.33;;
3197;SDS011;1611;49.394;11.136;2022-08-21T10:08:03;18.30;;;16.60;;
3197;SDS011;1611;49.394;11.136;2022-08-21T10:10:31;18.53;;;16.83;;
3197;SDS011;1611;49.394;11.136;2022-08-21T10:13:03;14.63;;;13.33;;
3197;SDS011;1611;49.394;11.136;2022-08-21T10:15:39;16.67;;;15.07;;
3197;SDS011;1611;49.394;11.136;2022-08-21T10:18:15;15.73;;;13.93;;
3197;SDS011;1611;49.394;11.136;2022-08-21T10:20:50;15.70;;;14.20;;
3197;SDS011;1611;49.394;11.136;2022-08-21T10:23:28;14.20;;;13.00;;
3197;SDS011;1611;49.394;11.136;2022-08-21T10:26:05;14.90;;;13.57;;
3197;SDS011;1611;49.394;11.136;2022-08-21T10:28:38;14.27;;;13.03;;
3197;SDS011;1611;49.394;11.136;2022-08-21T10:31:13;16.43;;;14.93;;
3197;SDS011;1611;49.394;11.136;2022-08-21T10:33:49;14.63;;;13.23;;
3197;SDS011;1611;49.394;11.136;2022-08-21T10:36:29;13.03;;;11.60;;
3197;SDS011;1611;49.394;11.136;2022-08-21T10:39:02;10.93;;;10.10;;
3197;SDS011;1611;49.394;11.136;2022-08-21T10:41:45;10.97;;;10.07;;
3197;SDS011;1611;49.394;11.136;2022-08-21T10:44:23;11.47;;;10.47;;
3197;SDS011;1611;49.394;11.136;2022-08-21T10:47:00;10.30;;;9.50;;
3197;SDS011;1611;49.394;11.136;2022-08-21T10:49:32;10.80;;;9.70;;
3197;SDS011;1611;49.394;11.136;2022-08-21T10:52:13;10.23;;;9.43;;
3197;SDS011;1611;49.394;11.136;2022-08-21T10:55:00;10.33;;;9.40;;
3197;SDS011;1611;49.394;11.136;2022-08-21T10:57:33;9.97;;;9.17;;
3197;SDS011;1611;49.394;11.136;2022-08-21T11:00:08;9.77;;;9.00;;
3197;SDS011;1611;49.394;11.136;2022-08-21T11:02:37;8.37;;;7.67;;
3197;SDS011;1611;49.394;11.136;2022-08-21T11:05:10;8.83;;;8.13;;
3197;SDS011;1611;49.394;11.136;2022-08-21T11:07:45;7.83;;;7.33;;
3197;SDS011;1611;49.394;11.136;2022-08-21T11:10:18;9.33;;;8.70;;
3197;SDS011;1611;49.394;11.136;2022-08-21T11:12:50;6.83;;;6.43;;
3197;SDS011;1611;49.394;11.136;2022-08-21T11:15:31;7.60;;;7.10;;
3197;SDS011;1611;49.394;11.136;2022-08-21T11:18:04;7.20;;;6.80;;
3197;SDS011;1611;49.394;11.136;2022-08-21T11:20:46;6.40;;;6.00;;
3197;SDS011;1611;49.394;11.136;2022-08-21T11:23:21;6.43;;;5.93;;
3197;SDS011;1611;49.394;11.136;2022-08-21T11:25:52;6.93;;;6.23;;
3197;SDS011;1611;49.394;11.136;2022-08-21T11:28:24;6.53;;;6.07;;
3197;SDS011;1611;49.394;11.136;2022-08-21T11:30:57;6.50;;;6.20;;
3197;SDS011;1611;49.394;11.136;2022-08-21T11:33:39;5.63;;;5.40;;
3197;SDS011;1611;49.394;11.136;2022-08-21T11:36:15;5.63;;;5.30;;
3197;SDS011;1611;49.394;11.136;2022-08-21T11:38:55;5.70;;;5.30;;
3197;SDS011;1611;49.394;11.136;2022-08-21T11:41:28;5.13;;;4.87;;
3197;SDS011;1611;49.394;11.136;2022-08-21T11:44:02;5.00;;;4.70;;
3197;SDS011;1611;49.394;11.136;2022-08-21T11:46:38;5.40;;;5.17;;
3197;SDS011;1611;49.394;11.136;2022-08-21T11:49:14;5.80;;;5.50;;
3197;SDS011;1611;49.394;11.136;2022-08-21T11:51:53;5.80;;;5.40;;
3197;SDS011;1611;49.394;11.136;2022-08-21T11:54:29;5.10;;;4.80;;
3197;SDS011;1611;49.394;11.136;2022-08-21T11:57:01;5.57;;;5.27;;
3197;SDS011;1611;49.394;11.136;2022-08-21T11:59:32;5.53;;;5.23;;
3197;SDS011;1611;49.394;11.136;2022-08-21T12:02:05;5.53;;;4.90;;
3197;SDS011;1611;49.394;11.136;2022-08-21T12:04:42;5.10;;;4.90;;
3197;SDS011;1611;49.394;11.136;2022-08-21T12:07:13;5.13;;;4.93;;
3197;SDS011;1611;49.394;11.136;2022-08-21T12:09:51;10.30;;;5.40;;
3197;SDS011;1611;49.394;11.136;2022-08-21T12:12:27;5.97;;;5.60;;
3197;SDS011;1611;49.394;11.136;2022-08-21T12:15:11;5.47;;;5.27;;
3197;SDS011;1611;49.394;11.136;2022-08-21T12:17:50;6.03;;;5.70;;
3197;SDS011;1611;49.394;11.136;2022-08-21T12:20:23;5.07;;;4.97;;
3197;SDS011;1611;49.394;11.136;2022-08-21T12:23:05;6.70;;;6.20;;
3197;SDS011;1611;49.394;11.136;2022-08-21T12:25:44;5.50;;;5.30;;
3197;SDS011;1611;49.394;11.136;2022-08-21T12:28:14;5.50;;;5.30;;
3197;SDS011;1611;49.394;11.136;2022-08-21T12:30:47;5.60;;;5.40;;
3197;SDS011;1611;49.394;11.136;2022-08-21T12:33:18;5.83;;;5.53;;
3197;SDS011;1611;49.394;11.136;2022-08-21T12:35:49;5.43;;;5.23;;
3197;SDS011;1611;49.394;11.136;2022-08-21T12:38:17;6.23;;;5.97;;
3197;SDS011;1611;49.394;11.136;2022-08-21T12:40:50;5.37;;;5.13;;
3197;SDS011;1611;49.394;11.136;2022-08-21T12:43:21;5.07;;;4.87;;
3197;SDS011;1611;49.394;11.136;2022-08-21T12:45:52;4.87;;;4.57;;
3197;SDS011;1611;49.394;11.136;2022-08-21T12:48:20;4.90;;;4.70;;
3197;SDS011;1611;49.394;11.136;2022-08-21T12:50:50;5.00;;;4.80;;
3197;SDS011;1611;49.394;11.136;2022-08-21T12:53:22;4.70;;;4.50;;
3197;SDS011;1611;49.394;11.136;2022-08-21T12:55:54;6.20;;;5.80;;
3197;SDS011;1611;49.394;11.136;2022-08-21T12:58:26;7.47;;;5.63;;
3197;SDS011;1611;49.394;11.136;2022-08-21T13:00:55;5.80;;;5.50;;
3197;SDS011;1611;49.394;11.136;2022-08-21T13:03:33;5.73;;;5.23;;
3197;SDS011;1611;49.394;11.136;2022-08-21T13:06:02;5.97;;;5.67;;
3197;SDS011;1611;49.394;11.136;2022-08-21T13:08:30;5.67;;;5.47;;
3197;SDS011;1611;49.394;11.136;2022-08-21T13:11:02;5.73;;;5.53;;
3197;SDS011;1611;49.394;11.136;2022-08-21T13:13:31;5.20;;;5.00;;
3197;SDS011;1611;49.394;11.136;2022-08-21T13:15:59;4.93;;;4.63;;
3197;SDS011;1611;49.394;11.136;2022-08-21T13:18:30;7.23;;;5.30;;
3197;SDS011;1611;49.394;11.136;2022-08-21T13:21:05;5.10;;;4.80;;
3197;SDS011;1611;49.394;11.136;2022-08-21T13:23:34;4.73;;;4.53;;
3197;SDS011;1611;49.394;11.136;2022-08-21T13:26:11;5.17;;;4.97;;
3197;SDS011;1611;49.394;11.136;2022-08-21T13:28:38;5.30;;;5.10;;
3197;SDS011;1611;49.394;11.136;2022-08-21T13:31:06;5.30;;;5.10;;
3197;SDS011;1611;49.394;11.136;2022-08-21T13:33:35;5.10;;;4.90;;
3197;SDS011;1611;49.394;11.136;2022-08-21T13:36:07;4.77;;;4.57;;
3197;SDS011;1611;49.394;11.136;2022-08-21T13:38:36;4.83;;;4.63;;
3197;SDS011;1611;49.394;11.136;2022-08-21T13:41:08;5.17;;;4.90;;
3197;SDS011;1611;49.394;11.136;2022-08-21T13:43:44;5.00;;;4.80;;
3197;SDS011;1611;49.394;11.136;2022-08-21T13:46:12;4.80;;;4.60;;
3197;SDS011;1611;49.394;11.136;2022-08-21T13:48:41;5.60;;;5.10;;
3197;SDS011;1611;49.394;11.136;2022-08-21T13:51:08;5.23;;;4.93;;
3197;SDS011;1611;49.394;11.136;2022-08-21T13:53:44;5.23;;;4.97;;
3197;SDS011;1611;49.394;11.136;2022-08-21T13:56:22;5.23;;;5.03;;
3197;SDS011;1611;49.394;11.136;2022-08-21T13:58:51;5.70;;;5.40;;
3197;SDS011;1611;49.394;11.136;2022-08-21T14:01:21;4.80;;;4.60;;
3197;SDS011;1611;49.394;11.136;2022-08-21T14:03:50;4.80;;;4.60;;
3197;SDS011;1611;49.394;11.136;2022-08-21T14:06:22;4.70;;;4.47;;
3197;SDS011;1611;49.394;11.136;2022-08-21T14:08:51;4.60;;;4.40;;
3197;SDS011;1611;49.394;11.136;2022-08-21T14:11:22;4.83;;;4.63;;
3197;SDS011;1611;49.394;11.136;2022-08-21T14:13:55;4.60;;;4.30;;
3197;SDS011;1611;49.394;11.136;2022-08-21T14:16:25;5.13;;;4.83;;
3197;SDS011;1611;49.394;11.136;2022-08-21T14:18:53;4.90;;;4.70;;
3197;SDS011;1611;49.394;11.136;2022-08-21T14:21:37;4.43;;;4.20;;
3197;SDS011;1611;49.394;11.136;2022-08-21T14:24:09;4.87;;;4.33;;
3197;SDS011;1611;49.394;11.136;2022-08-21T14:26:44;4.87;;;4.57;;
3197;SDS011;1611;49.394;11.136;2022-08-21T14:29:15;4.97;;;4.77;;
3197;SDS011;1611;49.394;11.136;2022-08-21T14:31:47;4.87;;;4.50;;
3197;SDS011;1611;49.394;11.136;2022-08-21T14:34:16;5.77;;;5.37;;
3197;SDS011;1611;49.394;11.136;2022-08-21T14:36:43;4.60;;;4.27;;
3197;SDS011;1611;49.394;11.136;2022-08-21T14:39:10;4.80;;;4.57;;
3197;SDS011;1611;49.394;11.136;2022-08-21T14:41:37;4.40;;;4.20;;
3197;SDS011;1611;49.394;11.136;2022-08-21T14:44:05;4.90;;;4.57;;
3197;SDS011;1611;49.394;11.136;2022-08-21T14:46:33;4.60;;;4.20;;
3197;SDS011;1611;49.394;11.136;2022-08-21T14:49:02;4.57;;;4.17;;
3197;SDS011;1611;49.394;11.136;2022-08-21T14:51:29;4.90;;;4.67;;
3197;SDS011;1611;49.394;11.136;2022-08-21T14:53:56;4.57;;;4.37;;
3197;SDS011;1611;49.394;11.136;2022-08-21T14:56:23;4.90;;;4.47;;
3197;SDS011;1611;49.394;11.136;2022-08-21T14:58:51;5.03;;;4.73;;
3197;SDS011;1611;49.394;11.136;2022-08-21T15:01:22;4.67;;;4.27;;
3197;SDS011;1611;49.394;11.136;2022-08-21T15:03:49;5.40;;;5.03;;